DLH4NE EDDF-EBBR
Flight info
| Callsign | DLH4NE |
|---|---|
| Flight time | 0h 35m |
| Altitude | 22000 |
| Route | SOBRA2L SOBRA Y180 BITBU Y181 GOPAS N852 LNO |
| Aircraft | A320/M-SDE2E3FGIJ1LORWXYZ/HB1 |
Departure
| Time | 2026-05-05 12:48 |
|---|---|
| Airport | Frankfurt Main Airport (EDDF) |
Arrival
| Time | 2026-05-05 13:23 |
|---|---|
| Airport | Brussels Airport (EBBR) |
| Time | Latitude | Longitude | Altitude | Speed | Heading |
|---|---|---|---|---|---|
| 2026-05-05 12:26 | 50.03634 | 8.53869 | 347 ft | 0 kts | 160° |
| 2026-05-05 12:44 | 50.03633 | 8.53870 | 341 ft | 1 kts | 160° |
| 2026-05-05 12:44 | 50.03628 | 8.53873 | 341 ft | 1 kts | 160° |
| 2026-05-05 12:44 | 50.03585 | 8.53893 | 339 ft | 10 kts | 175° |
| 2026-05-05 12:45 | 50.03539 | 8.53824 | 338 ft | 11 kts | 251° |
| 2026-05-05 12:45 | 50.03510 | 8.53696 | 337 ft | 14 kts | 250° |
| 2026-05-05 12:45 | 50.03473 | 8.53542 | 334 ft | 16 kts | 249° |
| 2026-05-05 12:45 | 50.03430 | 8.53365 | 334 ft | 18 kts | 250° |
| 2026-05-05 12:46 | 50.03383 | 8.53167 | 335 ft | 21 kts | 250° |
| 2026-05-05 12:46 | 50.03340 | 8.52987 | 334 ft | 16 kts | 250° |
| 2026-05-05 12:46 | 50.03298 | 8.52815 | 332 ft | 18 kts | 249° |
| 2026-05-05 12:46 | 50.03240 | 8.52632 | 334 ft | 19 kts | 221° |
| 2026-05-05 12:47 | 50.03110 | 8.52596 | 335 ft | 21 kts | 179° |
| 2026-05-05 12:47 | 50.02865 | 8.52599 | 333 ft | 65 kts | 180° |
| 2026-05-05 12:47 | 50.02192 | 8.52605 | 332 ft | 127 kts | 180° |
| 2026-05-05 12:47 | 50.01141 | 8.52616 | 377 ft | 170 kts | 180° |
| 2026-05-05 12:48 | 50.00000 | 8.52641 | 1180 ft | 162 kts | 178° |
| 2026-05-05 12:48 | 49.98861 | 8.52717 | 1845 ft | 169 kts | 178° |
| 2026-05-05 12:48 | 49.97609 | 8.52802 | 2211 ft | 191 kts | 178° |
| 2026-05-05 12:48 | 49.96201 | 8.52897 | 2521 ft | 213 kts | 178° |
| 2026-05-05 12:49 | 49.94682 | 8.53000 | 2996 ft | 228 kts | 178° |
| 2026-05-05 12:49 | 49.93061 | 8.53112 | 3860 ft | 231 kts | 178° |
| 2026-05-05 12:49 | 49.91470 | 8.53219 | 4792 ft | 232 kts | 178° |
| 2026-05-05 12:49 | 49.89853 | 8.53327 | 5720 ft | 233 kts | 178° |
| 2026-05-05 12:50 | 49.88224 | 8.53427 | 6619 ft | 235 kts | 180° |
| 2026-05-05 12:50 | 49.86590 | 8.53077 | 7360 ft | 244 kts | 196° |
| 2026-05-05 12:50 | 49.84913 | 8.52157 | 7807 ft | 266 kts | 200° |
| 2026-05-05 12:50 | 49.83148 | 8.51150 | 8566 ft | 274 kts | 200° |
| 2026-05-05 12:51 | 49.81344 | 8.50120 | 9473 ft | 278 kts | 199° |
| 2026-05-05 12:51 | 49.79529 | 8.49088 | 10168 ft | 289 kts | 199° |
| 2026-05-05 12:51 | 49.77673 | 8.47595 | 10448 ft | 314 kts | 219° |
| 2026-05-05 12:51 | 49.76331 | 8.44794 | 10750 ft | 338 kts | 248° |
| 2026-05-05 12:52 | 49.76012 | 8.41149 | 11343 ft | 351 kts | 275° |
| 2026-05-05 12:52 | 49.76468 | 8.37412 | 12072 ft | 356 kts | 281° |
| 2026-05-05 12:52 | 49.77057 | 8.33659 | 12841 ft | 360 kts | 283° |
| 2026-05-05 12:52 | 49.77691 | 8.29919 | 13355 ft | 373 kts | 283° |
| 2026-05-05 12:53 | 49.78376 | 8.25933 | 13490 ft | 393 kts | 283° |
| 2026-05-05 12:53 | 49.79090 | 8.21727 | 13629 ft | 411 kts | 283° |
| 2026-05-05 12:53 | 49.79815 | 8.17369 | 13868 ft | 423 kts | 283° |
| 2026-05-05 12:53 | 49.80538 | 8.12926 | 14346 ft | 427 kts | 282° |
| 2026-05-05 12:54 | 49.81971 | 8.03908 | 15349 ft | 434 kts | 282° |
| 2026-05-05 12:54 | 49.82683 | 7.99352 | 15855 ft | 437 kts | 282° |
| 2026-05-05 12:54 | 49.83388 | 7.94826 | 16348 ft | 440 kts | 282° |
| 2026-05-05 12:55 | 49.84109 | 7.90199 | 16838 ft | 443 kts | 282° |
| 2026-05-05 12:55 | 49.84837 | 7.85533 | 17312 ft | 446 kts | 282° |
| 2026-05-05 12:55 | 49.85570 | 7.80834 | 17784 ft | 449 kts | 281° |
| 2026-05-05 12:55 | 49.86310 | 7.76106 | 18230 ft | 452 kts | 282° |
| 2026-05-05 12:56 | 49.87059 | 7.71352 | 18623 ft | 455 kts | 282° |
| 2026-05-05 12:56 | 49.87810 | 7.66571 | 19019 ft | 458 kts | 282° |
| 2026-05-05 12:56 | 49.88560 | 7.61755 | 19405 ft | 460 kts | 282° |
| 2026-05-05 12:56 | 49.89297 | 7.56980 | 19767 ft | 463 kts | 281° |
| 2026-05-05 12:57 | 49.90046 | 7.52098 | 20125 ft | 465 kts | 281° |
| 2026-05-05 12:57 | 49.90800 | 7.47179 | 20453 ft | 468 kts | 281° |
| 2026-05-05 12:57 | 49.91551 | 7.42258 | 20791 ft | 470 kts | 281° |
| 2026-05-05 12:57 | 49.92307 | 7.37303 | 21133 ft | 473 kts | 281° |
| 2026-05-05 12:58 | 49.93068 | 7.32301 | 21461 ft | 475 kts | 281° |
| 2026-05-05 12:58 | 49.93814 | 7.27358 | 21765 ft | 477 kts | 281° |
| 2026-05-05 12:58 | 49.94572 | 7.22325 | 21859 ft | 479 kts | 281° |
| 2026-05-05 12:58 | 49.95329 | 7.17300 | 21867 ft | 479 kts | 281° |
| 2026-05-05 12:59 | 49.96089 | 7.12254 | 21864 ft | 479 kts | 281° |
| 2026-05-05 12:59 | 49.96849 | 7.07207 | 21861 ft | 479 kts | 281° |
| 2026-05-05 12:59 | 49.97602 | 7.02163 | 21857 ft | 479 kts | 281° |
| 2026-05-05 13:00 | 49.99005 | 6.92050 | 21835 ft | 477 kts | 275° |
| 2026-05-05 13:00 | 49.99225 | 6.86923 | 21841 ft | 474 kts | 269° |
| 2026-05-05 13:01 | 50.00436 | 6.71679 | 21855 ft | 477 kts | 279° |
| 2026-05-05 13:01 | 50.01084 | 6.66613 | 21856 ft | 477 kts | 279° |
| 2026-05-05 13:01 | 50.01727 | 6.61552 | 21856 ft | 477 kts | 278° |
| 2026-05-05 13:01 | 50.02328 | 6.56483 | 21853 ft | 476 kts | 278° |
| 2026-05-05 13:02 | 50.02875 | 6.51467 | 21845 ft | 476 kts | 277° |
| 2026-05-05 13:02 | 50.03391 | 6.46393 | 21844 ft | 475 kts | 276° |
| 2026-05-05 13:02 | 50.03887 | 6.41306 | 21844 ft | 475 kts | 276° |
| 2026-05-05 13:02 | 50.04379 | 6.36213 | 21867 ft | 476 kts | 276° |
| 2026-05-05 13:03 | 50.04872 | 6.31128 | 21859 ft | 476 kts | 276° |
| 2026-05-05 13:03 | 50.05375 | 6.26024 | 21853 ft | 477 kts | 276° |
| 2026-05-05 13:03 | 50.05886 | 6.20904 | 21861 ft | 477 kts | 276° |
| 2026-05-05 13:03 | 50.06408 | 6.15799 | 21854 ft | 477 kts | 278° |
| 2026-05-05 13:04 | 50.07287 | 6.10865 | 21857 ft | 481 kts | 289° |
| 2026-05-05 13:04 | 50.08782 | 6.06181 | 21856 ft | 484 kts | 300° |
| 2026-05-05 13:04 | 50.10827 | 6.02000 | 21853 ft | 487 kts | 311° |
| 2026-05-05 13:04 | 50.13364 | 5.98477 | 21858 ft | 488 kts | 323° |
| 2026-05-05 13:05 | 50.16229 | 5.95825 | 21855 ft | 467 kts | 334° |
| 2026-05-05 13:05 | 50.19154 | 5.94027 | 21854 ft | 448 kts | 339° |
| 2026-05-05 13:05 | 50.22059 | 5.92356 | 21851 ft | 442 kts | 339° |
| 2026-05-05 13:05 | 50.24942 | 5.90691 | 21849 ft | 441 kts | 339° |
| 2026-05-05 13:06 | 50.27817 | 5.89021 | 21856 ft | 440 kts | 339° |
| 2026-05-05 13:06 | 50.30646 | 5.87372 | 21618 ft | 431 kts | 339° |
| 2026-05-05 13:06 | 50.33453 | 5.85739 | 21357 ft | 427 kts | 339° |
| 2026-05-05 13:06 | 50.36197 | 5.84144 | 21103 ft | 424 kts | 339° |
| 2026-05-05 13:07 | 50.38965 | 5.82532 | 20849 ft | 423 kts | 339° |
| 2026-05-05 13:07 | 50.41724 | 5.80921 | 20599 ft | 421 kts | 339° |
| 2026-05-05 13:07 | 50.43545 | 5.79855 | 20435 ft | 420 kts | 339° |
| 2026-05-05 13:07 | 50.46275 | 5.78254 | 20186 ft | 418 kts | 339° |
| 2026-05-05 13:08 | 50.49888 | 5.76132 | 19853 ft | 416 kts | 339° |
| 2026-05-05 13:08 | 50.52588 | 5.74549 | 19618 ft | 412 kts | 339° |
| 2026-05-05 13:08 | 50.54398 | 5.73487 | 19451 ft | 410 kts | 338° |
| 2026-05-05 13:08 | 50.56965 | 5.71562 | 19212 ft | 407 kts | 328° |
| 2026-05-05 13:09 | 50.59233 | 5.69027 | 18980 ft | 404 kts | 318° |
| 2026-05-05 13:09 | 50.61211 | 5.65903 | 18740 ft | 401 kts | 308° |
| 2026-05-05 13:09 | 50.62959 | 5.62477 | 18510 ft | 400 kts | 307° |
| 2026-05-05 13:09 | 50.64694 | 5.59055 | 18292 ft | 398 kts | 308° |
| 2026-05-05 13:10 | 50.66414 | 5.55655 | 18038 ft | 396 kts | 308° |
| 2026-05-05 13:10 | 50.68118 | 5.52292 | 17594 ft | 389 kts | 308° |
| 2026-05-05 13:10 | 50.69802 | 5.48975 | 17069 ft | 386 kts | 308° |
| 2026-05-05 13:10 | 50.71476 | 5.45683 | 16560 ft | 383 kts | 308° |
| 2026-05-05 13:11 | 50.73142 | 5.42402 | 16015 ft | 381 kts | 308° |
| 2026-05-05 13:11 | 50.74772 | 5.39179 | 15497 ft | 379 kts | 308° |
| 2026-05-05 13:11 | 50.76419 | 5.35914 | 14955 ft | 379 kts | 309° |
| 2026-05-05 13:11 | 50.78055 | 5.32660 | 14413 ft | 378 kts | 309° |
| 2026-05-05 13:12 | 50.79693 | 5.29396 | 13865 ft | 378 kts | 309° |
| 2026-05-05 13:12 | 50.81324 | 5.26138 | 13263 ft | 378 kts | 309° |
| 2026-05-05 13:12 | 50.82954 | 5.22877 | 12706 ft | 375 kts | 309° |
| 2026-05-05 13:12 | 50.84556 | 5.19635 | 12124 ft | 373 kts | 307° |
| 2026-05-05 13:13 | 50.85789 | 5.16012 | 11561 ft | 374 kts | 291° |
| 2026-05-05 13:13 | 50.86378 | 5.12004 | 10964 ft | 373 kts | 276° |
| 2026-05-05 13:13 | 50.86275 | 5.07962 | 10488 ft | 368 kts | 259° |
| 2026-05-05 13:13 | 50.85566 | 5.04168 | 10363 ft | 352 kts | 250° |
| 2026-05-05 13:14 | 50.84760 | 5.00600 | 10241 ft | 337 kts | 250° |
| 2026-05-05 13:14 | 50.83992 | 4.97163 | 10117 ft | 324 kts | 251° |
| 2026-05-05 13:14 | 50.83252 | 4.93848 | 9995 ft | 312 kts | 251° |
| 2026-05-05 13:14 | 50.82548 | 4.90707 | 9835 ft | 302 kts | 251° |
| 2026-05-05 13:15 | 50.81845 | 4.87594 | 9276 ft | 298 kts | 250° |
| 2026-05-05 13:15 | 50.81150 | 4.84525 | 8588 ft | 296 kts | 250° |
| 2026-05-05 13:15 | 50.80456 | 4.81456 | 8152 ft | 296 kts | 250° |
| 2026-05-05 13:15 | 50.79764 | 4.78404 | 7777 ft | 293 kts | 250° |
| 2026-05-05 13:16 | 50.79077 | 4.75375 | 7211 ft | 294 kts | 250° |
| 2026-05-05 13:16 | 50.78391 | 4.72369 | 6764 ft | 287 kts | 250° |
| 2026-05-05 13:16 | 50.77724 | 4.69461 | 6276 ft | 281 kts | 250° |
| 2026-05-05 13:16 | 50.77058 | 4.66557 | 5770 ft | 280 kts | 250° |
| 2026-05-05 13:17 | 50.76399 | 4.63684 | 5262 ft | 273 kts | 250° |
| 2026-05-05 13:17 | 50.75761 | 4.60899 | 4776 ft | 265 kts | 251° |
| 2026-05-05 13:17 | 50.75148 | 4.58240 | 4505 ft | 251 kts | 251° |
| 2026-05-05 13:17 | 50.74574 | 4.55753 | 4252 ft | 238 kts | 252° |
| 2026-05-05 13:18 | 50.74021 | 4.53353 | 3992 ft | 228 kts | 251° |
| 2026-05-05 13:18 | 50.73485 | 4.51018 | 3744 ft | 225 kts | 251° |
| 2026-05-05 13:18 | 50.72979 | 4.48690 | 3486 ft | 223 kts | 259° |
| 2026-05-05 13:18 | 50.73080 | 4.46317 | 3231 ft | 216 kts | 296° |
| 2026-05-05 13:19 | 50.73984 | 4.44545 | 3079 ft | 203 kts | 330° |
| 2026-05-05 13:19 | 50.75244 | 4.43862 | 2937 ft | 185 kts | 359° |
| 2026-05-05 13:19 | 50.76472 | 4.44167 | 2745 ft | 174 kts | 15° |
| 2026-05-05 13:19 | 50.77596 | 4.44626 | 2517 ft | 156 kts | 16° |
| 2026-05-05 13:20 | 50.78585 | 4.45028 | 2309 ft | 140 kts | 16° |
| 2026-05-05 13:20 | 50.79505 | 4.45402 | 2111 ft | 134 kts | 15° |
| 2026-05-05 13:20 | 50.80401 | 4.45767 | 1932 ft | 132 kts | 16° |
| 2026-05-05 13:20 | 50.81282 | 4.46125 | 1761 ft | 131 kts | 17° |
| 2026-05-05 13:21 | 50.82166 | 4.46484 | 1587 ft | 130 kts | 17° |
| 2026-05-05 13:21 | 50.83027 | 4.46834 | 1402 ft | 130 kts | 16° |
| 2026-05-05 13:21 | 50.83918 | 4.47196 | 1239 ft | 130 kts | 17° |
| 2026-05-05 13:21 | 50.84801 | 4.47554 | 1030 ft | 130 kts | 17° |
| 2026-05-05 13:22 | 50.85668 | 4.47910 | 822 ft | 128 kts | 16° |
| 2026-05-05 13:22 | 50.86529 | 4.48263 | 638 ft | 130 kts | 15° |
| 2026-05-05 13:22 | 50.87399 | 4.48616 | 548 ft | 128 kts | 15° |
| 2026-05-05 13:22 | 50.88264 | 4.48970 | 301 ft | 127 kts | 15° |
| 2026-05-05 13:23 | 50.89114 | 4.49319 | 152 ft | 122 kts | 13° |
| 2026-05-05 13:23 | 50.89749 | 4.49571 | 140 ft | 53 kts | 15° |
| 2026-05-05 13:23 | 50.90024 | 4.49683 | 134 ft | 38 kts | 14° |
| 2026-05-05 13:23 | 50.90223 | 4.49705 | 136 ft | 28 kts | 352° |
| 2026-05-05 13:24 | 50.90323 | 4.49664 | 135 ft | 0 kts | 343° |
| 2026-05-05 13:24 | 50.90323 | 4.49663 | 135 ft | 0 kts | 343° |
| 2026-05-05 13:25 | 50.90367 | 4.49644 | 136 ft | 8 kts | 345° |
| 2026-05-05 13:25 | 50.90410 | 4.49604 | 136 ft | 4 kts | 324° |
| 2026-05-05 13:26 | 50.90454 | 4.49552 | 135 ft | 11 kts | 321° |
| 2026-05-05 13:26 | 50.90452 | 4.49479 | 133 ft | 6 kts | 222° |
| 2026-05-05 13:26 | 50.90426 | 4.49413 | 134 ft | 7 kts | 245° |
| 2026-05-05 13:26 | 50.90415 | 4.49337 | 135 ft | 9 kts | 274° |
| 2026-05-05 13:27 | 50.90484 | 4.49254 | 134 ft | 17 kts | 335° |
| 2026-05-05 13:27 | 50.90613 | 4.49162 | 125 ft | 18 kts | 336° |
| 2026-05-05 13:27 | 50.90630 | 4.49034 | 128 ft | 12 kts | 233° |
| 2026-05-05 13:27 | 50.90597 | 4.48923 | 128 ft | 10 kts | 249° |
| 2026-05-05 13:28 | 50.90572 | 4.48821 | 128 ft | 10 kts | 248° |
| 2026-05-05 13:28 | 50.90543 | 4.48742 | 132 ft | 6 kts | 205° |
| 2026-05-05 13:28 | 50.90516 | 4.48751 | 133 ft | 2 kts | 159° |
| 2026-05-05 13:28 | 50.90494 | 4.48767 | 133 ft | 6 kts | 155° |
| 2026-05-05 13:29 | 50.90467 | 4.48786 | 133 ft | 0 kts | 155° |